createdAt,value
2022-09-20T00:00:29.484Z,6.98
2022-09-20T00:01:30.970Z,6.96
2022-09-20T00:02:29.545Z,6.94
2022-09-20T00:03:29.521Z,6.96
2022-09-20T00:04:29.600Z,6.94
2022-09-20T00:05:29.676Z,6.96
2022-09-20T00:06:30.799Z,6.95
2022-09-20T00:07:29.660Z,6.95
2022-09-20T00:08:29.771Z,6.9
2022-09-20T00:09:30.169Z,6.94
2022-09-20T00:10:30.000Z,6.91
2022-09-20T00:11:31.320Z,6.88
2022-09-20T00:12:29.757Z,6.88
2022-09-20T00:13:30.216Z,6.91
2022-09-20T00:14:30.393Z,7
2022-09-20T00:15:30.289Z,6.93
2022-09-20T00:16:31.181Z,6.94
2022-09-20T00:17:29.802Z,6.91
2022-09-20T00:18:29.810Z,6.91
2022-09-20T00:19:29.946Z,7.02
2022-09-20T00:20:29.824Z,6.92
2022-09-20T00:21:30.732Z,6.93
2022-09-20T00:22:30.018Z,6.99
2022-09-20T00:23:29.912Z,7.04
2022-09-20T00:24:29.930Z,7.01
2022-09-20T00:25:29.900Z,6.99
2022-09-20T00:26:29.922Z,7.05
2022-09-20T00:27:29.905Z,7.08
2022-09-20T00:28:31.194Z,7.07
2022-09-20T00:29:30.045Z,6.99
2022-09-20T00:30:29.982Z,6.98
2022-09-20T00:31:30.105Z,6.97
2022-09-20T00:32:31.012Z,6.95
2022-09-20T00:33:30.026Z,6.97
2022-09-20T00:34:30.087Z,7
2022-09-20T00:35:30.083Z,6.97
2022-09-20T00:36:30.367Z,6.97
2022-09-20T00:37:30.122Z,7.01
2022-09-20T00:38:30.292Z,6.93
2022-09-20T00:39:30.133Z,6.92
2022-09-20T00:40:30.255Z,6.9
2022-09-20T00:41:30.915Z,6.94
2022-09-20T00:42:30.763Z,6.91
2022-09-20T00:45:37.390Z,6.89
2022-09-20T00:46:43.335Z,6.9
2022-09-20T00:47:42.145Z,6.89
2022-09-20T00:48:40.005Z,6.92
2022-09-20T00:49:40.530Z,6.95
2022-09-20T00:50:44.503Z,6.98
2022-09-20T00:51:43.051Z,6.95
2022-09-20T00:52:44.956Z,6.95
2022-09-20T00:53:44.824Z,6.95
2022-09-20T00:54:42.131Z,6.98
2022-09-20T00:56:44.049Z,6.95
2022-09-20T00:57:44.828Z,6.96
2022-09-20T00:58:46.480Z,7.03
2022-09-20T00:59:45.910Z,6.99
2022-09-20T01:00:44.234Z,6.96
2022-09-20T01:01:45.022Z,6.92
2022-09-20T01:02:47.456Z,6.95
2022-09-20T01:03:44.188Z,6.93
2022-09-20T01:04:44.625Z,6.86
2022-09-20T01:05:44.589Z,6.83
2022-09-20T01:06:45.647Z,6.87
2022-09-20T01:07:46.158Z,6.88
2022-09-20T01:08:46.377Z,6.86
2022-09-20T01:09:44.057Z,6.9
2022-09-20T01:10:43.929Z,6.9
2022-09-20T01:11:44.049Z,6.89
2022-09-20T01:12:44.753Z,6.96
2022-09-20T01:13:43.924Z,6.94
2022-09-20T01:14:44.964Z,6.93
2022-09-20T01:15:46.562Z,6.91
2022-09-20T01:16:44.288Z,6.86
2022-09-20T01:17:47.564Z,6.87
2022-09-20T01:18:44.571Z,6.85
2022-09-20T01:20:49.729Z,6.82
2022-09-20T01:21:48.831Z,6.95
2022-09-20T01:28:05.857Z,6.81
2022-09-20T01:32:16.223Z,6.9
2022-09-20T01:34:17.870Z,6.85
2022-09-20T01:35:16.627Z,6.79
2022-09-20T01:36:25.980Z,6.78
2022-09-20T01:42:32.082Z,6.91
2022-09-20T01:43:37.531Z,6.9
2022-09-20T01:44:38.318Z,6.83
2022-09-20T01:45:31.768Z,6.9
2022-09-20T01:46:31.500Z,6.84
2022-09-20T01:48:36.688Z,6.86
2022-09-20T02:05:27.071Z,6.93
2022-09-20T02:11:40.621Z,6.87
2022-09-20T02:13:46.466Z,6.83
2022-09-20T02:16:56.830Z,6.82
2022-09-20T02:20:58.644Z,6.77
2022-09-20T02:31:28.508Z,6.7
2022-09-20T02:33:43.054Z,6.68
2022-09-20T02:38:44.644Z,6.65
2022-09-20T02:41:57.934Z,6.55
2022-09-20T02:42:56.209Z,6.65
2022-09-20T02:45:03.591Z,6.64
2022-09-20T02:46:12.555Z,6.58
2022-09-20T02:47:13.528Z,6.6
2022-09-20T02:48:05.387Z,6.73
2022-09-20T02:49:18.729Z,6.78
2022-09-20T02:50:16.701Z,6.72
2022-09-20T02:51:20.941Z,6.62
2022-09-20T02:57:36.336Z,6.59
2022-09-20T02:58:42.185Z,6.57
2022-09-20T02:59:38.627Z,6.56
2022-09-20T03:00:36.986Z,6.55
2022-09-20T03:06:55.248Z,6.54
2022-09-20T03:12:18.331Z,6.59
2022-09-20T03:13:17.959Z,6.54
2022-09-20T03:16:22.738Z,6.58
2022-09-20T03:17:27.141Z,6.56
2022-09-20T03:18:33.711Z,6.57
2022-09-20T03:20:33.487Z,6.69
2022-09-20T03:26:57.879Z,6.55
2022-09-20T03:28:59.343Z,6.7
2022-09-20T03:42:30.706Z,6.6
2022-09-20T03:46:44.984Z,6.59
2022-09-20T04:03:23.113Z,6.65
2022-09-20T04:05:22.366Z,6.68
2022-09-20T04:13:39.733Z,6.93
2022-09-20T04:21:00.723Z,6.93
2022-09-20T04:21:57.958Z,7.01
2022-09-20T04:22:59.710Z,6.97
2022-09-20T04:26:02.982Z,7.09
2022-09-20T04:28:12.824Z,7.09
2022-09-20T04:32:22.821Z,6.97
2022-09-20T04:33:31.688Z,6.98
2022-09-20T04:34:26.239Z,7.03
2022-09-20T04:35:36.067Z,7.04
2022-09-20T04:37:34.163Z,7.04
2022-09-20T04:38:30.697Z,7.03
2022-09-20T04:56:34.999Z,7.32
2022-09-20T05:09:59.465Z,7.4
2022-09-20T05:17:20.512Z,7.4
2022-09-20T05:19:30.306Z,7.51
2022-09-20T05:22:41.738Z,7.45
2022-09-20T05:30:48.872Z,7.45
2022-09-20T05:34:01.171Z,7.53
2022-09-20T05:37:01.814Z,7.5
2022-09-20T05:43:12.569Z,7.52
2022-09-20T05:49:34.665Z,7.79
2022-09-20T05:52:44.798Z,7.64
2022-09-20T05:57:59.632Z,7.58
2022-09-20T06:03:22.355Z,7.69
2022-09-20T06:04:23.130Z,7.61
2022-09-20T06:06:28.067Z,7.73
2022-09-20T06:07:30.050Z,7.67
2022-09-20T06:14:41.682Z,8.02
2022-09-20T06:15:43.519Z,7.86
2022-09-20T06:17:47.949Z,7.79
2022-09-20T06:18:57.278Z,7.86
2022-09-20T06:20:02.626Z,8.04
2022-09-20T06:21:55.229Z,8.17
2022-09-20T06:22:55.084Z,7.96
2022-09-20T06:23:57.414Z,7.74
2022-09-20T06:26:59.669Z,7.96
2022-09-20T06:29:02.012Z,7.94
2022-09-20T06:30:01.644Z,8.19
2022-09-20T06:30:59.929Z,8.19
2022-09-20T06:31:59.661Z,8.19
2022-09-20T06:33:01.181Z,8.23
2022-09-20T06:34:04.162Z,8.2
2022-09-20T06:35:01.328Z,8.16
2022-09-20T06:41:14.327Z,8.58
2022-09-20T06:42:14.135Z,8.32
2022-09-20T06:43:14.128Z,8.35
2022-09-20T06:44:14.104Z,8.31
2022-09-20T06:45:14.154Z,8.5
2022-09-20T06:46:14.454Z,8.38
2022-09-20T06:47:14.467Z,8.45
2022-09-20T06:48:14.669Z,8.33
2022-09-20T06:49:14.187Z,8.28
2022-09-20T06:50:15.333Z,8.36
2022-09-20T06:51:14.223Z,8.45
2022-09-20T06:52:15.112Z,8.43
2022-09-20T06:53:18.302Z,8.62
2022-09-20T06:54:17.459Z,8.51
2022-09-20T06:58:23.470Z,8.78
2022-09-20T06:59:23.507Z,8.8
2022-09-20T07:00:23.545Z,8.82
2022-09-20T07:01:30.023Z,8.86
2022-09-20T07:02:27.112Z,8.94
2022-09-20T07:03:27.047Z,8.72
2022-09-20T07:04:27.105Z,8.8
2022-09-20T07:05:27.093Z,8.66
2022-09-20T07:06:27.096Z,8.97
2022-09-20T07:07:27.130Z,8.7
2022-09-20T07:08:27.122Z,8.75
2022-09-20T07:09:27.141Z,8.91
2022-09-20T07:10:27.668Z,8.76
2022-09-20T07:11:27.424Z,8.96
2022-09-20T07:12:28.596Z,8.75
2022-09-20T07:13:27.281Z,8.92
2022-09-20T07:14:27.454Z,9.09
2022-09-20T07:15:27.896Z,9.1
2022-09-20T07:16:27.318Z,9.02
2022-09-20T07:17:27.247Z,8.95
2022-09-20T07:18:27.269Z,8.98
2022-09-20T07:19:27.266Z,8.93
2022-09-20T07:20:27.589Z,9.11
2022-09-20T07:21:27.449Z,9.22
2022-09-20T07:22:27.356Z,9.24
2022-09-20T07:23:28.122Z,9.08
2022-09-20T07:24:27.343Z,8.96
2022-09-20T07:25:27.361Z,9.07
2022-09-20T07:26:28.412Z,9.24
2022-09-20T07:27:29.379Z,9.08
2022-09-20T07:28:28.348Z,9.08
2022-09-20T07:29:27.919Z,9.14
2022-09-20T07:30:27.400Z,9.08
2022-09-20T07:31:29.046Z,9.01
2022-09-20T07:32:27.482Z,9.09
2022-09-20T07:33:27.462Z,9.07
2022-09-20T07:34:27.436Z,9.03
2022-09-20T07:35:27.492Z,9.16
2022-09-20T07:36:27.714Z,9.21
2022-09-20T07:37:27.585Z,9.19
2022-09-20T07:38:27.547Z,9.1
2022-09-20T07:39:27.517Z,9.23
2022-09-20T07:40:27.607Z,9.33
2022-09-20T07:41:27.579Z,9.38
2022-09-20T07:42:27.786Z,9.24
2022-09-20T07:43:28.335Z,9.39
2022-09-20T07:44:27.597Z,9.22
2022-09-20T07:45:27.672Z,9.2
2022-09-20T07:46:27.697Z,9.21
2022-09-20T07:47:27.671Z,9.27
2022-09-20T07:48:29.652Z,9.34
2022-09-20T07:49:28.608Z,9.36
2022-09-20T07:50:27.703Z,9.39
2022-09-20T07:51:27.697Z,9.3
2022-09-20T07:52:27.719Z,9.4
2022-09-20T07:53:28.257Z,9.53
2022-09-20T07:54:27.893Z,9.51
2022-09-20T07:55:27.843Z,9.25
2022-09-20T07:56:27.809Z,9.2
2022-09-20T07:57:27.822Z,9.33
2022-09-20T07:58:28.640Z,9.34
2022-09-20T07:59:27.829Z,9.27
2022-09-20T08:00:27.805Z,9.27
2022-09-20T08:01:27.887Z,9.36
2022-09-20T08:02:27.969Z,9.44
2022-09-20T08:03:29.936Z,9.45
2022-09-20T08:04:27.898Z,9.59
2022-09-20T08:05:27.882Z,9.75
2022-09-20T08:06:27.937Z,9.61
2022-09-20T08:07:29.101Z,9.66
2022-09-20T08:08:28.506Z,9.47
2022-09-20T08:09:27.950Z,9.51
2022-09-20T08:10:27.968Z,9.6
2022-09-20T08:11:28.117Z,9.68
2022-09-20T08:14:30.559Z,10.07
2022-09-20T08:15:30.598Z,10.1
2022-09-20T08:16:30.988Z,9.93
2022-09-20T08:17:30.618Z,9.83
2022-09-20T08:18:31.167Z,10.04
2022-09-20T08:19:30.666Z,10.07
2022-09-20T08:20:30.659Z,9.87
2022-09-20T08:21:32.280Z,9.83
2022-09-20T08:22:30.863Z,9.99
2022-09-20T08:23:30.676Z,9.97
2022-09-20T08:24:30.783Z,10.04
2022-09-20T08:25:30.755Z,9.95
2022-09-20T08:26:31.088Z,9.91
2022-09-20T08:27:30.735Z,9.97
2022-09-20T08:28:31.271Z,10.03
2022-09-20T08:29:30.826Z,10.08
2022-09-20T08:30:30.763Z,9.97
2022-09-20T08:31:31.635Z,10.17
2022-09-20T08:32:30.810Z,10.41
2022-09-20T08:33:30.991Z,10.24
2022-09-20T08:34:30.849Z,10.22
2022-09-20T08:35:30.815Z,10.22
2022-09-20T08:36:36.053Z,10.26
2022-09-20T08:37:33.044Z,10.3
2022-09-20T08:40:36.167Z,10.1
2022-09-20T08:41:39.836Z,10.09
2022-09-20T08:42:42.045Z,10.19
2022-09-20T08:45:45.603Z,10.32
2022-09-20T08:46:50.471Z,10.23
2022-09-20T08:48:48.357Z,10.32
2022-09-20T08:49:49.201Z,10.35
2022-09-20T08:50:48.749Z,10.36
2022-09-20T08:51:49.118Z,10.3
2022-09-20T08:52:51.717Z,10.43
2022-09-20T08:53:49.837Z,10.22
2022-09-20T08:54:48.386Z,10.28
2022-09-20T08:55:48.473Z,10.23
2022-09-20T08:56:48.372Z,10.35
2022-09-20T08:57:52.930Z,10.36
2022-09-20T08:58:49.273Z,10.61
2022-09-20T08:59:49.236Z,10.48
2022-09-20T09:00:49.214Z,10.54
2022-09-20T09:01:50.567Z,10.31
2022-09-20T09:03:52.957Z,10.24
2022-09-20T09:04:51.934Z,10.35
2022-09-20T09:05:53.103Z,10.39
2022-09-20T09:06:52.062Z,10.44
2022-09-20T09:07:51.820Z,10.38
2022-09-20T09:08:52.017Z,10.56
2022-09-20T09:09:53.737Z,10.67
2022-09-20T09:10:53.493Z,10.84
2022-09-20T09:11:53.021Z,10.73
2022-09-20T09:12:52.081Z,10.74
2022-09-20T09:13:55.645Z,10.7
2022-09-20T09:14:53.140Z,10.5
2022-09-20T09:16:53.363Z,10.54
2022-09-20T09:17:53.403Z,10.6
2022-09-20T09:18:53.484Z,10.65
2022-09-20T09:20:57.492Z,10.67
2022-09-20T09:22:01.840Z,10.59
2022-09-20T09:23:02.383Z,10.43
2022-09-20T09:26:03.852Z,10.63
2022-09-20T09:27:16.027Z,10.66
2022-09-20T09:28:11.148Z,10.69
2022-09-20T09:31:12.305Z,10.6
2022-09-20T09:36:23.085Z,10.6
2022-09-20T09:40:26.693Z,10.56
2022-09-20T09:41:29.544Z,10.46
2022-09-20T09:42:25.875Z,10.55
2022-09-20T09:43:27.678Z,10.48
2022-09-20T09:44:27.351Z,10.69
2022-09-20T09:45:27.711Z,10.71
2022-09-20T09:46:25.892Z,10.56
2022-09-20T09:47:26.989Z,10.6
2022-09-20T09:48:27.358Z,10.68
2022-09-20T09:49:32.493Z,10.6
2022-09-20T09:50:31.054Z,10.75
2022-09-20T09:51:28.690Z,10.67
2022-09-20T09:52:28.745Z,10.59
2022-09-20T09:53:28.725Z,10.76
2022-09-20T09:54:30.658Z,10.69
2022-09-20T09:57:39.513Z,10.91
2022-09-20T10:00:41.130Z,10.91
2022-09-20T10:03:52.348Z,10.94
2022-09-20T10:04:56.761Z,10.93
2022-09-20T10:15:28.256Z,11.08
2022-09-20T10:19:47.632Z,11.16
2022-09-20T10:20:46.621Z,11.16
2022-09-20T10:24:03.999Z,11.03
2022-09-20T10:29:08.186Z,11.28
2022-09-20T10:30:12.110Z,11.38
2022-09-20T10:31:20.150Z,11.26
2022-09-20T10:39:31.803Z,11.62
2022-09-20T10:40:36.898Z,11.35
2022-09-20T10:44:46.144Z,11.44
2022-09-20T10:46:47.980Z,11.54
2022-09-20T10:48:46.700Z,11.36
2022-09-20T10:51:54.307Z,11.52
2022-09-20T11:05:29.605Z,11.7
2022-09-20T11:08:34.463Z,11.59
2022-09-20T11:09:37.211Z,11.53
2022-09-20T11:10:45.193Z,11.76
2022-09-20T11:11:47.640Z,11.55
2022-09-20T11:12:45.929Z,11.7
2022-09-20T11:13:48.934Z,11.63
2022-09-20T11:14:53.728Z,11.72
2022-09-20T11:17:01.770Z,12.09
2022-09-20T11:18:02.719Z,11.7
2022-09-20T11:20:07.921Z,11.96
2022-09-20T11:21:15.793Z,11.94
2022-09-20T11:22:20.150Z,12.02
2022-09-20T11:23:23.703Z,11.9
2022-09-20T11:24:21.588Z,12.11
2022-09-20T11:25:29.450Z,12.32
2022-09-20T11:27:26.606Z,12.37
2022-09-20T11:30:25.756Z,12.56
2022-09-20T11:32:32.534Z,12.25
2022-09-20T11:33:30.726Z,12.26
2022-09-20T11:34:31.679Z,11.97
2022-09-20T11:35:33.975Z,12.22
2022-09-20T11:39:43.670Z,12.02
2022-09-20T11:40:37.467Z,12.22
2022-09-20T11:41:35.426Z,12.36
2022-09-20T11:42:36.248Z,12.61
2022-09-20T11:43:36.289Z,12.72
2022-09-20T11:44:36.237Z,12.95
2022-09-20T11:45:37.410Z,12.87
2022-09-20T11:47:54.516Z,12.91
2022-09-20T11:48:47.204Z,12.87
2022-09-20T11:56:10.952Z,12.26
2022-09-20T11:57:11.989Z,12.27
2022-09-20T11:58:11.023Z,12.23
2022-09-20T12:00:10.159Z,12.23
2022-09-20T12:01:12.284Z,12.37
2022-09-20T12:04:38.154Z,13.12
2022-09-20T12:06:26.760Z,12.69
2022-09-20T12:07:25.637Z,12.6
2022-09-20T12:08:29.518Z,12.42
2022-09-20T12:09:29.299Z,12.4
2022-09-20T12:10:30.572Z,12.49
2022-09-20T12:11:29.679Z,12.62
2022-09-20T12:12:38.583Z,12.58
2022-09-20T12:13:31.607Z,12.48
2022-09-20T12:14:30.312Z,12.88
2022-09-20T12:15:32.019Z,12.68
2022-09-20T12:16:43.580Z,12.55
2022-09-20T12:19:37.825Z,12.56
2022-09-20T12:22:43.319Z,12.58
2022-09-20T12:23:44.277Z,12.87
2022-09-20T12:24:45.607Z,13.33
2022-09-20T12:26:46.959Z,13.19
2022-09-20T12:27:55.912Z,12.77
2022-09-20T12:28:51.870Z,13.4
2022-09-20T12:31:55.192Z,12.91
2022-09-20T12:32:54.716Z,13.1
2022-09-20T12:34:55.861Z,13.29
2022-09-20T12:35:59.203Z,13.33
2022-09-20T12:37:57.065Z,13.3
2022-09-20T12:39:58.874Z,13.03
2022-09-20T12:43:05.024Z,13.24
2022-09-20T12:45:18.643Z,13.35
2022-09-20T12:46:19.207Z,13.49
2022-09-20T12:47:22.302Z,13.7
2022-09-20T12:48:18.855Z,13.77
2022-09-20T12:50:17.214Z,13.78
2022-09-20T12:52:29.926Z,13.66
2022-09-20T12:53:26.592Z,13.79
2022-09-20T12:54:26.675Z,13.9
2022-09-20T12:56:27.938Z,13.49
2022-09-20T12:57:30.574Z,13.44
2022-09-20T12:59:32.924Z,12.78
2022-09-20T13:00:37.622Z,12.69
2022-09-20T13:01:36.661Z,13.2
2022-09-20T13:03:42.702Z,13.36
2022-09-20T13:05:40.474Z,13.81
2022-09-20T13:06:39.082Z,14.03
2022-09-20T13:07:43.641Z,14.11
2022-09-20T13:08:45.599Z,13.97
2022-09-20T13:09:41.912Z,13.72
2022-09-20T13:10:47.680Z,12.95
2022-09-20T13:11:47.424Z,13.26
2022-09-20T13:12:44.812Z,13.45
2022-09-20T13:13:46.462Z,13.86
2022-09-20T13:14:44.271Z,13.68
2022-09-20T13:15:47.697Z,13.87
2022-09-20T13:16:52.238Z,13.81
2022-09-20T13:17:51.404Z,13.93
2022-09-20T13:18:55.802Z,13.85
2022-09-20T13:19:52.211Z,13.68
2022-09-20T13:20:52.553Z,13.85
2022-09-20T13:22:57.125Z,13.74
2022-09-20T13:23:56.442Z,13.54
2022-09-20T13:24:57.227Z,13.55
2022-09-20T13:25:57.399Z,13.37
2022-09-20T13:28:58.752Z,13.07
2022-09-20T13:34:20.801Z,13.08
2022-09-20T13:36:14.353Z,12.99
2022-09-20T13:38:17.885Z,12.94
2022-09-20T13:40:26.106Z,12.83
2022-09-20T13:41:22.582Z,12.8
2022-09-20T13:42:22.716Z,12.79
2022-09-20T13:43:31.269Z,12.81
2022-09-20T13:44:22.486Z,12.74
2022-09-20T13:45:22.692Z,12.67
2022-09-20T13:46:29.791Z,12.71
2022-09-20T13:47:29.810Z,12.72
2022-09-20T13:48:26.998Z,12.8
2022-09-20T13:49:30.638Z,12.7
2022-09-20T13:50:31.731Z,12.71
2022-09-20T13:51:28.194Z,12.68
2022-09-20T13:52:29.401Z,12.72
2022-09-20T13:53:41.251Z,12.73
2022-09-20T13:54:33.329Z,12.69
2022-09-20T13:55:37.797Z,12.83
2022-09-20T13:56:34.676Z,12.89
2022-09-20T13:57:34.677Z,12.92
2022-09-20T13:58:35.407Z,12.85
2022-09-20T13:59:39.849Z,12.85
2022-09-20T14:00:37.170Z,12.81
2022-09-20T14:01:36.122Z,12.77
2022-09-20T14:02:36.651Z,12.8
2022-09-20T14:03:36.272Z,12.82
2022-09-20T14:04:38.405Z,12.87
2022-09-20T14:05:36.152Z,12.59
2022-09-20T14:06:36.385Z,12.63
2022-09-20T14:07:36.270Z,12.5
2022-09-20T14:08:43.865Z,12.62
2022-09-20T14:09:40.466Z,12.63
2022-09-20T14:10:40.080Z,12.54
2022-09-20T14:11:40.322Z,12.37
2022-09-20T14:12:40.305Z,12.43
2022-09-20T14:13:41.496Z,12.55
2022-09-20T14:14:41.038Z,12.64
2022-09-20T14:15:47.203Z,12.5
2022-09-20T14:16:44.744Z,12.35
2022-09-20T14:17:43.660Z,12.32
2022-09-20T14:18:43.830Z,12.31
2022-09-20T14:19:43.875Z,12.44
2022-09-20T14:20:46.716Z,12.32
2022-09-20T14:21:44.037Z,12.29
2022-09-20T14:22:43.898Z,12.37
2022-09-20T14:23:51.328Z,12.34
2022-09-20T14:30:06.323Z,12.16
2022-09-20T14:31:08.483Z,12.18
2022-09-20T14:33:14.593Z,12.29
2022-09-20T14:34:12.382Z,12.24
2022-09-20T14:35:16.164Z,12.18
2022-09-20T14:36:13.863Z,12.31
2022-09-20T14:37:23.788Z,12.37
2022-09-20T14:38:17.190Z,12.4
2022-09-20T14:39:17.301Z,12.41
2022-09-20T14:40:28.744Z,12.36
2022-09-20T14:44:34.288Z,12.7
2022-09-20T14:49:34.389Z,12.88
2022-09-20T14:50:35.848Z,12.7
2022-09-20T14:51:34.244Z,12.61
2022-09-20T14:52:37.922Z,12.68
2022-09-20T14:53:34.583Z,12.7
2022-09-20T14:54:34.635Z,12.73
2022-09-20T14:55:37.397Z,12.89
2022-09-20T14:56:36.309Z,12.8
2022-09-20T14:57:35.171Z,12.92
2022-09-20T15:01:46.173Z,12.81
2022-09-20T15:02:44.492Z,12.83
2022-09-20T15:03:43.842Z,12.81
2022-09-20T15:04:52.157Z,12.84
2022-09-20T15:05:49.278Z,12.81
2022-09-20T15:06:49.668Z,12.79
2022-09-20T15:07:48.433Z,12.81
2022-09-20T15:08:48.482Z,12.83
2022-09-20T15:09:48.565Z,12.83
2022-09-20T15:10:48.801Z,12.72
2022-09-20T15:12:52.554Z,12.72
2022-09-20T15:13:52.555Z,12.55
2022-09-20T15:14:52.631Z,12.45
2022-09-20T15:15:53.251Z,12.33
2022-09-20T15:16:53.122Z,12.34
2022-09-20T15:17:52.615Z,12.21
2022-09-20T15:18:52.574Z,12.11
2022-09-20T15:19:52.597Z,12.15
2022-09-20T15:20:53.423Z,12.02
2022-09-20T15:21:52.748Z,12.07
2022-09-20T15:22:52.630Z,11.94
2022-09-20T15:23:52.747Z,11.87
2022-09-20T15:24:52.679Z,11.7
2022-09-20T15:25:53.813Z,11.49
2022-09-20T15:26:52.690Z,11.41
2022-09-20T15:27:52.716Z,11.34
2022-09-20T15:28:52.726Z,11.3
2022-09-20T15:29:52.904Z,11.32
2022-09-20T15:30:52.788Z,11.27
2022-09-20T15:31:53.037Z,11.25
2022-09-20T15:32:52.843Z,11.26
2022-09-20T15:33:53.018Z,11.19
2022-09-20T15:34:52.827Z,11.13
2022-09-20T15:35:52.863Z,11.13
2022-09-20T15:36:53.834Z,11.03
2022-09-20T15:37:52.860Z,10.97
2022-09-20T15:38:55.917Z,10.93
2022-09-20T15:39:52.889Z,10.84
2022-09-20T15:40:53.340Z,10.91
2022-09-20T15:41:53.205Z,10.85
2022-09-20T15:42:56.301Z,10.77
2022-09-20T15:43:52.973Z,10.7
2022-09-20T15:44:52.988Z,10.69
2022-09-20T15:45:57.379Z,10.56
2022-09-20T15:46:53.671Z,10.54
2022-09-20T15:47:54.219Z,10.51
2022-09-20T15:48:54.294Z,10.61
2022-09-20T15:49:53.671Z,10.58
2022-09-20T15:51:57.077Z,10.55
2022-09-20T15:53:00.115Z,10.54
2022-09-20T15:53:58.626Z,10.45
2022-09-20T15:54:57.138Z,10.41
2022-09-20T15:55:57.821Z,10.37
2022-09-20T15:56:57.162Z,10.4
2022-09-20T15:57:57.167Z,10.44
2022-09-20T15:59:01.259Z,10.37
2022-09-20T15:59:57.580Z,10.39
2022-09-20T16:02:00.667Z,10.37
2022-09-20T16:03:00.606Z,10.33
2022-09-20T16:04:04.865Z,10.3
2022-09-20T16:05:01.072Z,10.31
2022-09-20T16:06:04.611Z,10.3
2022-09-20T16:07:01.109Z,10.27
2022-09-20T16:08:01.347Z,10.31
2022-09-20T16:09:01.423Z,10.25
2022-09-20T16:10:01.399Z,10.27
2022-09-20T16:11:01.685Z,10.27
2022-09-20T16:12:01.516Z,10.3
2022-09-20T16:13:01.224Z,10.31
2022-09-20T16:14:01.514Z,10.2
2022-09-20T16:15:01.258Z,10.17
2022-09-20T16:16:01.861Z,10.16
2022-09-20T16:17:01.917Z,10.15
2022-09-20T16:18:01.330Z,10.16
2022-09-20T16:19:01.300Z,10.21
2022-09-20T16:20:01.608Z,10.18
2022-09-20T16:22:02.616Z,10.19
2022-09-20T16:23:02.661Z,10.16
2022-09-20T16:24:02.899Z,10.14
2022-09-20T16:25:02.702Z,10.3
2022-09-20T16:26:02.835Z,10.24
2022-09-20T16:27:03.781Z,10.25
2022-09-20T16:28:02.711Z,10.25
2022-09-20T16:29:03.145Z,10.16
2022-09-20T16:30:02.948Z,10.19
2022-09-20T16:31:02.749Z,10.19
2022-09-20T16:32:03.420Z,10.25
2022-09-20T16:33:03.119Z,10.25
2022-09-20T16:34:03.584Z,10.3
2022-09-20T16:35:02.985Z,10.22
2022-09-20T16:36:02.891Z,10.14
2022-09-20T16:37:04.685Z,10.18
2022-09-20T16:38:02.841Z,10.1
2022-09-20T16:39:03.108Z,10.06
2022-09-20T16:40:03.124Z,10.11
2022-09-20T16:41:02.960Z,10.17
2022-09-20T16:42:04.961Z,10.1
2022-09-20T16:43:02.984Z,10.09
2022-09-20T16:44:02.987Z,10.09
2022-09-20T16:45:03.209Z,10.01
2022-09-20T16:46:03.100Z,9.96
2022-09-20T16:47:07.348Z,9.92
2022-09-20T16:48:08.290Z,9.88
2022-09-20T16:49:06.619Z,9.88
2022-09-20T16:50:05.334Z,9.87
2022-09-20T16:51:05.335Z,9.83
2022-09-20T16:52:05.585Z,9.89
2022-09-20T16:53:05.100Z,10.03
2022-09-20T16:54:06.571Z,9.96
2022-09-20T16:55:05.585Z,10.02
2022-09-20T16:56:05.028Z,9.97
2022-09-20T16:57:05.281Z,10
2022-09-20T16:58:05.068Z,10.03
2022-09-20T16:59:05.789Z,9.98
2022-09-20T17:00:05.600Z,9.93
2022-09-20T17:01:06.476Z,9.91
2022-09-20T17:02:05.112Z,9.85
2022-09-20T17:03:05.153Z,9.92
2022-09-20T17:04:05.740Z,9.92
2022-09-20T17:05:05.633Z,9.83
2022-09-20T17:06:05.338Z,9.83
2022-09-20T17:07:05.174Z,9.89
2022-09-20T17:08:05.271Z,9.94
2022-09-20T17:09:05.747Z,10
2022-09-20T17:10:05.673Z,9.97
2022-09-20T17:11:06.511Z,10.02
2022-09-20T17:12:05.474Z,10.04
2022-09-20T17:13:05.306Z,9.91
2022-09-20T17:14:05.890Z,9.83
2022-09-20T17:15:05.812Z,9.83
2022-09-20T17:16:07.898Z,9.87
2022-09-20T17:17:05.666Z,9.87
2022-09-20T17:18:05.462Z,9.95
2022-09-20T17:19:07.138Z,9.91
2022-09-20T17:20:05.867Z,9.85
2022-09-20T17:21:06.254Z,9.81
2022-09-20T17:22:05.448Z,9.84
2022-09-20T17:23:05.809Z,9.82
2022-09-20T17:24:06.479Z,9.9
2022-09-20T17:25:05.881Z,9.87
2022-09-20T17:26:06.495Z,9.82
2022-09-20T17:27:05.499Z,9.81
2022-09-20T17:28:05.525Z,9.81
2022-09-20T17:29:06.844Z,9.83
2022-09-20T17:30:06.271Z,9.93
2022-09-20T17:31:06.409Z,9.9
2022-09-20T17:32:05.676Z,9.94
2022-09-20T17:33:08.329Z,9.92
2022-09-20T17:34:07.078Z,9.9
2022-09-20T17:35:06.089Z,9.82
2022-09-20T17:36:06.359Z,9.83
2022-09-20T17:37:05.955Z,9.89
2022-09-20T17:38:05.694Z,9.85
2022-09-20T17:39:06.517Z,9.84
2022-09-20T17:40:06.372Z,9.86
2022-09-20T17:41:07.028Z,9.82
2022-09-20T17:42:06.097Z,9.75
2022-09-20T17:43:05.784Z,9.77
2022-09-20T17:44:06.117Z,9.71
2022-09-20T17:45:06.567Z,9.8
2022-09-20T17:47:10.543Z,9.81
2022-09-20T17:48:10.561Z,9.73
2022-09-20T17:49:11.694Z,9.68
2022-09-20T17:50:10.623Z,9.73
2022-09-20T17:51:12.697Z,9.73
2022-09-20T17:52:10.635Z,9.7
2022-09-20T17:53:10.629Z,9.78
2022-09-20T17:54:11.086Z,9.76
2022-09-20T17:55:10.846Z,9.68
2022-09-20T17:56:11.723Z,9.7
2022-09-20T17:57:10.716Z,9.68
2022-09-20T17:58:10.709Z,9.66
2022-09-20T17:59:11.416Z,9.69
2022-09-20T18:00:11.376Z,9.68
2022-09-20T18:01:13.006Z,9.75
2022-09-20T18:02:10.779Z,9.72
2022-09-20T18:03:10.799Z,9.78
2022-09-20T18:04:11.247Z,9.65
2022-09-20T18:05:10.841Z,9.7
2022-09-20T18:07:12.210Z,9.65
2022-09-20T18:08:12.191Z,9.63
2022-09-20T18:09:14.551Z,9.65
2022-09-20T18:10:12.249Z,9.66
2022-09-20T18:11:12.851Z,9.73
2022-09-20T18:12:17.572Z,9.66
2022-09-20T18:13:15.208Z,9.58
2022-09-20T18:14:16.130Z,9.59
2022-09-20T18:15:15.422Z,9.55
2022-09-20T18:16:15.751Z,9.6
2022-09-20T18:17:15.392Z,9.67
2022-09-20T18:18:15.280Z,9.67
2022-09-20T18:19:15.324Z,9.67
2022-09-20T18:20:15.433Z,9.67
2022-09-20T18:21:19.466Z,9.7
2022-09-20T18:22:15.677Z,9.73
2022-09-20T18:23:15.681Z,9.71
2022-09-20T18:24:15.704Z,9.67
2022-09-20T18:25:15.909Z,9.61
2022-09-20T18:26:17.146Z,9.6
2022-09-20T18:27:15.765Z,9.65
2022-09-20T18:28:15.778Z,9.67
2022-09-20T18:29:16.866Z,9.62
2022-09-20T18:30:15.820Z,9.61
2022-09-20T18:31:15.891Z,9.52
2022-09-20T18:32:15.830Z,9.55
2022-09-20T18:33:16.364Z,9.54
2022-09-20T18:34:19.802Z,9.56
2022-09-20T18:35:15.980Z,9.49
2022-09-20T18:36:16.008Z,9.52
2022-09-20T18:37:16.054Z,9.55
2022-09-20T18:38:16.038Z,9.56
2022-09-20T18:39:16.037Z,9.54
2022-09-20T18:40:16.169Z,9.57
2022-09-20T18:41:16.098Z,9.59
2022-09-20T18:42:16.179Z,9.58
2022-09-20T18:43:16.139Z,9.61
2022-09-20T18:44:16.853Z,9.55
2022-09-20T18:45:16.147Z,9.53
2022-09-20T18:46:16.174Z,9.54
2022-09-20T18:47:16.174Z,9.54
2022-09-20T18:48:16.221Z,9.58
2022-09-20T18:49:16.278Z,9.56
2022-09-20T18:50:16.224Z,9.57
2022-09-20T18:51:16.280Z,9.58
2022-09-20T18:52:16.263Z,9.58
2022-09-20T18:53:16.350Z,9.61
2022-09-20T18:54:16.383Z,9.63
2022-09-20T18:55:16.507Z,9.62
2022-09-20T18:56:23.383Z,9.63
2022-09-20T18:57:19.922Z,9.66
2022-09-20T18:58:20.612Z,9.69
2022-09-20T18:59:23.509Z,9.68
2022-09-20T19:00:20.050Z,9.69
2022-09-20T19:08:43.626Z,9.59
2022-09-20T19:09:46.140Z,9.61
2022-09-20T19:11:47.140Z,9.56
2022-09-20T19:13:52.796Z,9.47
2022-09-20T19:17:00.287Z,9.59
2022-09-20T19:20:08.954Z,9.6
2022-09-20T19:25:23.838Z,9.57
2022-09-20T19:26:23.998Z,9.58
2022-09-20T19:27:20.716Z,9.56
2022-09-20T19:28:20.512Z,9.49
2022-09-20T19:29:21.573Z,9.43
2022-09-20T19:30:20.641Z,9.39
2022-09-20T19:31:27.941Z,9.39
2022-09-20T19:32:24.579Z,9.4
2022-09-20T19:33:24.494Z,9.38
2022-09-20T19:34:28.605Z,9.39
2022-09-20T19:35:28.580Z,9.45
2022-09-20T19:36:26.033Z,9.46
2022-09-20T19:51:02.547Z,9.36
2022-09-20T19:52:00.522Z,9.34
2022-09-20T19:53:00.602Z,9.33
2022-09-20T19:54:00.399Z,9.35
2022-09-20T19:55:00.676Z,9.35
2022-09-20T19:56:03.126Z,9.3
2022-09-20T19:57:01.786Z,9.32
2022-09-20T19:58:00.604Z,9.35
2022-09-20T19:59:00.747Z,9.3
2022-09-20T20:00:00.759Z,9.3
2022-09-20T20:01:00.543Z,9.36
2022-09-20T20:02:00.758Z,9.39
2022-09-20T20:03:00.692Z,9.4
2022-09-20T20:04:00.778Z,9.34
2022-09-20T20:05:00.678Z,9.38
2022-09-20T20:08:14.257Z,9.38
2022-09-20T20:12:25.569Z,9.46
2022-09-20T20:19:46.875Z,9.37
2022-09-20T20:20:40.733Z,9.41
2022-09-20T20:21:47.982Z,9.4
2022-09-20T20:24:51.023Z,9.38
2022-09-20T20:26:51.658Z,9.37